Time;durP1;ratioP1;P1;durP2;ratioP2;P2;SDS_P1;SDS_P2;PMS_P1;PMS_P2;Temp;Humidity;BMP_temperature;BMP_pressure;BME280_temperature;BME280_humidity;BME280_pressure;Samples;Min_cycle;Max_cycle;Signal;HPM_P1;HPM_P2
2023/05/25 00:01:17;;;;;;;3.42;1.95;;;;;;;19.75;51.11;102515.22;6123103;23;20113;-51
2023/05/25 00:03:44;;;;;;;3.35;1.48;;;;;;;19.74;51.10;102517.03;6123033;23;20307;-48
2023/05/25 00:06:10;;;;;;;3.33;1.65;;;;;;;19.72;50.74;102509.09;6122706;23;20008;-51
2023/05/25 00:08:39;;;;;;;3.85;1.80;;;;;;;19.73;50.49;102515.34;6122925;23;20021;-51
2023/05/25 00:11:04;;;;;;;3.47;1.77;;;;;;;19.73;50.56;102509.94;6123161;23;20002;-51
2023/05/25 00:13:29;;;;;;;3.63;1.48;;;;;;;19.72;50.90;102513.59;6123163;23;20025;-50
2023/05/25 00:15:55;;;;;;;3.35;1.80;;;;;;;19.71;50.74;102515.41;6123000;23;20644;-48
2023/05/25 00:18:20;;;;;;;2.15;1.50;;;;;;;19.72;51.07;102510.91;6123403;23;20086;-51
2023/05/25 00:20:46;;;;;;;3.05;2.00;;;;;;;19.71;50.62;102517.28;6122900;23;20034;-50
2023/05/25 00:23:12;;;;;;;2.05;1.38;;;;;;;19.69;51.04;102501.16;6122369;23;20030;-50
2023/05/25 00:25:38;;;;;;;3.55;1.98;;;;;;;19.71;51.06;102514.56;6096928;23;20440;-50
2023/05/25 00:28:03;;;;;;;1.95;1.73;;;;;;;19.70;51.30;102512.81;6123669;23;20488;-49
2023/05/25 00:30:29;;;;;;;2.90;1.73;;;;;;;19.69;51.13;102508.41;6097151;23;20014;-49
2023/05/25 00:32:54;;;;;;;5.22;1.70;;;;;;;19.69;51.02;102516.53;6122957;23;20010;-53
2023/05/25 00:35:20;;;;;;;2.08;1.77;;;;;;;19.70;51.04;102515.53;6122826;23;20010;-51
2023/05/25 00:37:45;;;;;;;2.58;1.50;;;;;;;19.69;51.07;102519.22;6097631;23;20010;-50
2023/05/25 00:40:15;;;;;;;2.88;1.63;;;;;;;19.68;50.97;102525.59;6122739;23;20489;-50
2023/05/25 00:42:41;;;;;;;2.80;1.70;;;;;;;19.68;51.00;102523.75;6122871;23;20014;-51
2023/05/25 00:45:07;;;;;;;2.15;1.50;;;;;;;19.67;50.89;102523.88;6123398;23;20049;-51
2023/05/25 00:47:32;;;;;;;2.25;1.52;;;;;;;19.66;51.27;102522.16;6123520;23;20009;-48
2023/05/25 00:50:00;;;;;;;2.47;1.60;;;;;;;19.67;51.08;102521.19;6122596;23;20333;-50
2023/05/25 00:52:26;;;;;;;2.60;1.67;;;;;;;19.66;50.88;102525.72;6122318;23;20009;-55
2023/05/25 00:54:54;;;;;;;4.13;2.10;;;;;;;19.66;51.07;102511.34;6122537;23;20016;-54
2023/05/25 00:57:22;;;;;;;3.92;1.88;;;;;;;19.65;50.91;102513.19;6122726;23;20373;-54
2023/05/25 00:59:50;;;;;;;2.90;1.50;;;;;;;19.65;50.70;102518.59;6122838;23;20073;-55
2023/05/25 01:02:18;;;;;;;4.25;1.85;;;;;;;19.63;50.92;102519.66;6122484;23;20016;-55
2023/05/25 01:04:51;;;;;;;3.10;1.60;;;;;;;19.65;50.46;102528.56;6122729;23;20013;-55
2023/05/25 01:07:22;;;;;;;2.83;1.58;;;;;;;19.62;50.60;102526.91;6122528;23;20588;-55
2023/05/25 01:09:49;;;;;;;4.07;1.42;;;;;;;19.63;50.66;102519.66;6122980;23;20417;-52
2023/05/25 01:12:15;;;;;;;3.92;1.70;;;;;;;19.63;50.72;102525.06;6122818;23;20014;-54
2023/05/25 01:14:40;;;;;;;2.53;1.67;;;;;;;19.62;50.54;102528.78;6122625;23;20380;-55
2023/05/25 01:17:07;;;;;;;2.53;1.70;;;;;;;19.62;50.60;102526.06;6123277;23;20341;-55
2023/05/25 01:19:34;;;;;;;2.35;1.52;;;;;;;19.61;50.62;102524.34;6122633;23;20358;-54
2023/05/25 01:22:11;;;;;;;4.88;1.90;;;;;;;19.61;51.16;102527.91;6122148;23;20022;-54
2023/05/25 01:24:43;;;;;;;2.33;1.33;;;;;;;19.60;50.73;102531.59;6125170;23;20025;-54
2023/05/25 01:27:20;;;;;;;3.72;1.45;;;;;;;19.61;50.94;102532.44;6125053;23;20101;-54
2023/05/25 01:29:47;;;;;;;4.25;1.77;;;;;;;19.59;50.33;102535.28;6124460;23;20503;-55
2023/05/25 01:32:13;;;;;;;3.35;1.90;;;;;;;19.58;50.52;102540.78;6124217;23;20010;-54
2023/05/25 01:34:42;;;;;;;2.53;1.50;;;;;;;19.58;50.33;102548.91;6125190;23;20372;-55
2023/05/25 01:37:07;;;;;;;2.83;1.60;;;;;;;19.58;50.63;102543.50;6124907;23;20010;-54
2023/05/25 01:39:32;;;;;;;2.03;1.58;;;;;;;19.57;50.66;102552.56;6124376;23;20440;-54
2023/05/25 01:41:58;;;;;;;3.45;1.83;;;;;;;19.58;50.71;102554.31;6098259;23;20010;-54
2023/05/25 01:44:25;;;;;;;1.52;1.40;;;;;;;19.56;50.72;102545.44;6124159;23;20442;-54
2023/05/25 01:47:15;;;;;;;3.67;1.65;;;;;;;19.57;50.64;102541.75;6124460;23;20333;-53
2023/05/25 01:50:05;;;;;;;2.20;1.73;;;;;;;19.58;50.84;102554.31;6123195;23;20025;-55
2023/05/25 01:52:56;;;;;;;3.05;1.80;;;;;;;19.58;50.80;102549.75;6124179;23;20006;-55
2023/05/25 01:55:25;;;;;;;;;;;;;;;19.66;50.64;102551.88;6111250;23;20006;-55
2023/05/25 01:57:56;;;;;;;2.42;1.85;;;;;;;19.56;50.45;102549.00;6124379;23;19916;-55
2023/05/25 02:00:24;;;;;;;1.58;1.42;;;;;;;19.55;50.53;102549.97;6124312;23;20321;-54
2023/05/25 02:02:51;;;;;;;1.75;1.40;;;;;;;19.53;50.43;102544.72;6124182;23;20088;-55
2023/05/25 02:05:19;;;;;;;2.25;1.40;;;;;;;19.52;50.47;102555.63;6123941;23;20013;-54
2023/05/25 02:07:44;;;;;;;3.22;1.83;;;;;;;19.52;50.47;102555.63;6124016;23;20085;-55
2023/05/25 02:10:10;;;;;;;3.20;1.83;;;;;;;19.50;50.34;102553.03;6124878;23;20040;-53
2023/05/25 02:12:35;;;;;;;3.22;1.30;;;;;;;19.50;50.30;102547.63;6124212;23;20467;-54
2023/05/25 02:15:00;;;;;;;3.28;1.75;;;;;;;19.50;50.25;102546.78;6098320;23;20020;-54
2023/05/25 02:17:26;;;;;;;2.70;1.50;;;;;;;19.50;50.34;102554.88;6123920;23;20006;-54
2023/05/25 02:19:53;;;;;;;2.67;1.25;;;;;;;19.48;50.46;102544.19;6097994;23;20021;-55
2023/05/25 02:22:20;;;;;;;2.28;1.48;;;;;;;19.48;50.68;102548.72;6123603;23;20018;-54
2023/05/25 02:24:45;;;;;;;4.32;1.90;;;;;;;19.47;50.36;102547.84;6097825;23;20024;-54
2023/05/25 02:27:11;;;;;;;2.78;1.85;;;;;;;19.47;50.39;102542.44;6124406;23;20085;-54
2023/05/25 02:29:37;;;;;;;4.70;1.90;;;;;;;19.46;50.58;102551.53;6124332;23;20089;-54
2023/05/25 02:32:03;;;;;;;3.60;1.55;;;;;;;19.46;50.08;102550.69;6123734;23;20041;-54
2023/05/25 02:34:28;;;;;;;2.45;1.63;;;;;;;19.46;50.22;102545.28;6123856;23;20063;-52
2023/05/25 02:36:53;;;;;;;3.50;1.92;;;;;;;19.46;50.43;102545.28;6097562;23;20013;-54
2023/05/25 02:39:19;;;;;;;2.38;1.52;;;;;;;19.45;50.24;102546.25;6123712;23;20085;-54
2023/05/25 02:41:44;;;;;;;3.13;1.88;;;;;;;19.44;50.00;102549.91;6123735;23;20009;-54
2023/05/25 02:44:09;;;;;;;4.53;1.80;;;;;;;19.44;50.03;102541.81;6124422;23;20039;-54
2023/05/25 02:46:35;;;;;;;2.03;1.60;;;;;;;19.43;50.32;102546.34;6123851;23;20422;-54
2023/05/25 02:49:00;;;;;;;2.45;1.73;;;;;;;19.43;50.10;102543.66;6123507;23;20361;-53
2023/05/25 02:51:29;;;;;;;1.63;1.45;;;;;;;19.42;50.47;102544.66;6123729;23;20014;-54
2023/05/25 02:53:54;;;;;;;4.88;2.15;;;;;;;19.42;50.08;102550.06;6123827;23;20157;-53
2023/05/25 02:56:21;;;;;;;3.35;1.58;;;;;;;19.42;50.36;102550.06;6123656;23;20425;-55
2023/05/25 02:58:47;;;;;;;4.13;1.52;;;;;;;19.41;50.49;102548.31;6123885;23;20045;-55
2023/05/25 03:01:16;;;;;;;2.28;1.67;;;;;;;19.42;50.34;102549.16;6124244;23;20010;-54
2023/05/25 03:03:43;;;;;;;2.55;1.83;;;;;;;19.42;50.09;102544.66;6124633;23;20010;-54
2023/05/25 03:06:08;;;;;;;2.90;1.83;;;;;;;19.40;50.31;102546.59;6124071;23;20089;-54
2023/05/25 03:08:33;;;;;;;2.78;1.45;;;;;;;19.40;50.57;102552.00;6123737;23;20049;-54
2023/05/25 03:10:59;;;;;;;2.33;1.45;;;;;;;19.40;50.11;102551.13;6123297;23;20014;-54
2023/05/25 03:13:24;;;;;;;3.95;1.80;;;;;;;19.40;50.31;102549.31;6123486;23;20010;-54
2023/05/25 03:15:50;;;;;;;2.55;1.42;;;;;;;19.40;49.96;102561.94;6123586;23;20036;-54
2023/05/25 03:18:15;;;;;;;3.08;1.80;;;;;;;19.39;50.20;102566.47;6123589;23;20336;-55
2023/05/25 03:20:41;;;;;;;3.90;1.67;;;;;;;19.37;50.08;102563.03;6123770;23;20006;-54
2023/05/25 03:23:06;;;;;;;2.28;1.50;;;;;;;19.37;50.20;102570.28;6123084;23;20018;-54
2023/05/25 03:25:31;;;;;;;4.93;1.77;;;;;;;19.37;49.71;102571.13;6123579;23;20014;-54
2023/05/25 03:27:57;;;;;;;2.28;1.73;;;;;;;19.37;50.30;102579.22;6123336;23;20010;-54
2023/05/25 03:30:22;;;;;;;2.88;1.70;;;;;;;19.36;49.99;102577.50;6123005;23;20014;-54
2023/05/25 03:32:48;;;;;;;3.42;1.80;;;;;;;19.36;49.80;102576.63;6123287;23;20013;-54
2023/05/25 03:35:13;;;;;;;2.97;1.65;;;;;;;19.35;49.89;102592.00;6123696;23;20321;-53
2023/05/25 03:37:38;;;;;;;2.80;1.45;;;;;;;19.34;49.62;102590.25;6123372;23;20010;-54
2023/05/25 03:40:04;;;;;;;2.22;1.63;;;;;;;19.34;49.77;102596.53;6123157;23;20488;-54
2023/05/25 03:42:30;;;;;;;4.88;1.70;;;;;;;19.33;49.83;102600.19;6123294;23;20081;-53
2023/05/25 03:44:55;;;;;;;3.53;1.90;;;;;;;19.32;49.78;102598.50;6122891;23;20014;-54
2023/05/25 03:47:21;;;;;;;3.45;2.22;;;;;;;19.30;49.91;102602.25;6122924;23;20013;-54
2023/05/25 03:49:46;;;;;;;2.63;1.60;;;;;;;19.31;49.52;102604.00;6123157;23;20006;-55
2023/05/25 03:52:11;;;;;;;2.28;1.50;;;;;;;19.32;49.71;102609.28;6123611;23;20417;-55
2023/05/25 03:54:37;;;;;;;2.97;1.70;;;;;;;19.30;49.41;102599.56;6123216;23;20010;-54
2023/05/25 03:57:02;;;;;;;3.15;1.75;;;;;;;19.32;49.61;102611.09;6123064;23;20005;-55
2023/05/25 03:59:28;;;;;;;2.20;1.80;;;;;;;19.30;49.72;102619.31;6123131;23;20061;-54
2023/05/25 04:01:54;;;;;;;3.20;1.95;;;;;;;19.29;49.49;102609.50;6123023;23;20013;-54
2023/05/25 04:04:19;;;;;;;2.00;1.85;;;;;;;19.29;49.58;102605.94;6122843;23;20084;-55
2023/05/25 04:06:47;;;;;;;2.60;1.98;;;;;;;19.28;49.49;102615.00;6123475;23;20017;-54
2023/05/25 04:09:15;;;;;;;2.65;1.63;;;;;;;19.28;49.63;102604.22;6123454;23;20053;-54
2023/05/25 04:11:41;;;;;;;2.42;1.85;;;;;;;19.26;49.86;102607.00;6122887;23;20014;-54
2023/05/25 04:14:06;;;;;;;2.50;1.98;;;;;;;19.27;49.51;102602.50;6122950;23;20524;-54
2023/05/25 04:16:31;;;;;;;2.50;1.52;;;;;;;19.27;49.76;102599.81;6123048;23;20073;-54
2023/05/25 04:18:57;;;;;;;2.92;1.60;;;;;;;19.25;49.69;102602.59;6122793;23;20035;-54
2023/05/25 04:21:22;;;;;;;2.22;1.90;;;;;;;19.28;49.53;102612.31;6122668;23;20421;-54
2023/05/25 04:23:47;;;;;;;2.53;1.92;;;;;;;19.26;50.08;102608.88;6122650;23;20017;-53
2023/05/25 04:26:15;;;;;;;1.80;1.70;;;;;;;19.26;49.62;102608.88;6123575;23;20054;-54
2023/05/25 04:28:40;;;;;;;2.20;1.70;;;;;;;19.25;49.42;102607.16;6122633;23;20010;-55
2023/05/25 04:31:07;;;;;;;2.15;1.40;;;;;;;19.26;49.71;102614.25;6122722;23;20029;-53
2023/05/25 04:33:37;;;;;;;2.28;1.60;;;;;;;19.24;49.58;102608.97;6122573;23;20014;-54
2023/05/25 04:36:05;;;;;;;2.65;1.80;;;;;;;19.25;50.06;102612.56;6122332;23;20053;-54
2023/05/25 04:38:32;;;;;;;1.98;1.58;;;;;;;19.24;50.07;102610.81;6122835;23;20425;-54
2023/05/25 04:40:58;;;;;;;4.13;1.75;;;;;;;19.24;49.96;102618.91;6122983;23;20409;-55
2023/05/25 04:43:24;;;;;;;1.80;1.58;;;;;;;19.25;49.93;102620.66;6122753;23;20085;-54
2023/05/25 04:45:53;;;;;;;2.75;1.70;;;;;;;19.25;50.44;102620.66;6122634;23;20013;-53
2023/05/25 04:48:19;;;;;;;2.05;1.20;;;;;;;19.26;50.68;102628.63;6122601;23;20009;-54
2023/05/25 04:50:44;;;;;;;2.88;1.80;;;;;;;19.26;50.66;102633.16;6123324;23;20006;-54
2023/05/25 04:53:10;;;;;;;3.72;1.35;;;;;;;19.26;50.82;102620.53;6122766;23;20033;-53
2023/05/25 04:55:35;;;;;;;1.90;1.67;;;;;;;19.26;51.09;102623.22;6122808;23;20314;-54
2023/05/25 04:58:02;;;;;;;2.97;2.10;;;;;;;19.26;51.31;102625.06;6123587;23;20041;-55
2023/05/25 05:00:27;;;;;;;1.80;1.33;;;;;;;19.27;51.11;102629.50;6124686;23;20333;-54
2023/05/25 05:02:55;;;;;;;2.47;1.50;;;;;;;19.27;51.35;102634.91;6124860;23;20006;-54
2023/05/25 05:05:21;;;;;;;1.50;1.40;;;;;;;19.27;51.40;102637.63;6124583;23;20005;-55
2023/05/25 05:07:46;;;;;;;2.75;1.77;;;;;;;19.28;51.84;102639.31;6125201;23;20041;-53
2023/05/25 05:10:12;;;;;;;1.92;1.30;;;;;;;19.26;51.34;102628.63;6124463;23;20013;-55
2023/05/25 05:12:38;;;;;;;2.58;1.80;;;;;;;19.29;51.72;102641.06;6124661;23;20017;-54
2023/05/25 05:15:03;;;;;;;1.90;1.52;;;;;;;19.29;52.34;102641.06;6124638;23;20006;-54
2023/05/25 05:17:29;;;;;;;2.20;1.60;;;;;;;19.29;51.88;102635.66;6125162;23;20006;-54
2023/05/25 05:19:55;;;;;;;2.35;1.33;;;;;;;19.29;51.89;102636.50;6124652;23;20029;-54
2023/05/25 05:22:20;;;;;;;2.15;1.48;;;;;;;19.30;51.82;102642.78;6124378;23;20484;-55
2023/05/25 05:24:46;;;;;;;2.17;1.45;;;;;;;19.30;51.73;102643.63;6124465;23;20026;-53
2023/05/25 05:27:15;;;;;;;4.00;2.28;;;;;;;19.31;51.99;102649.91;6124095;23;20018;-54
2023/05/25 05:29:41;;;;;;;3.38;1.90;;;;;;;19.32;52.00;102646.22;6124584;23;20006;-54
2023/05/25 05:32:07;;;;;;;2.80;1.27;;;;;;;19.33;51.99;102648.81;6124538;23;20077;-55
2023/05/25 05:34:33;;;;;;;2.08;1.80;;;;;;;19.32;52.39;102652.50;6124339;23;20441;-53
2023/05/25 05:36:59;;;;;;;2.47;1.83;;;;;;;19.33;52.28;102656.91;6124392;23;20012;-54
2023/05/25 05:39:27;;;;;;;3.90;1.60;;;;;;;19.34;52.39;102665.88;6124126;23;20081;-54
2023/05/25 05:41:53;;;;;;;2.30;1.35;;;;;;;19.34;52.15;102668.59;6123471;23;20311;-54
2023/05/25 05:44:22;;;;;;;2.55;1.70;;;;;;;19.35;52.30;102664.91;6125262;23;20060;-53
2023/05/25 05:46:48;;;;;;;1.92;1.38;;;;;;;19.36;52.48;102674.72;6124560;23;20413;-53
2023/05/25 05:49:13;;;;;;;3.70;1.63;;;;;;;19.36;52.11;102672.03;6124083;23;20001;-54
2023/05/25 05:51:38;;;;;;;2.25;1.65;;;;;;;19.37;52.28;102672.91;6124375;23;20017;-54
2023/05/25 05:54:04;;;;;;;1.50;1.40;;;;;;;19.38;52.69;102680.91;6124400;23;20088;-54
2023/05/25 05:56:30;;;;;;;2.55;1.40;;;;;;;19.37;52.75;102676.47;6098516;23;20018;-54
2023/05/25 05:58:55;;;;;;;2.58;1.77;;;;;;;19.39;52.78;102679.94;6124222;23;20014;-54
2023/05/25 06:01:21;;;;;;;2.15;1.50;;;;;;;19.39;52.86;102682.63;6124911;23;20033;-55
2023/05/25 06:03:47;;;;;;;2.13;1.48;;;;;;;19.40;52.79;102687.06;6124876;23;20489;-54
2023/05/25 06:06:13;;;;;;;2.63;1.70;;;;;;;19.41;53.06;102694.19;6124223;23;20084;-54
2023/05/25 06:08:39;;;;;;;1.92;1.73;;;;;;;19.42;52.83;102695.03;6124074;23;20088;-54
2023/05/25 06:11:05;;;;;;;3.13;1.52;;;;;;;19.41;52.74;102694.19;6124325;23;20006;-54
2023/05/25 06:13:30;;;;;;;4.38;1.50;;;;;;;19.42;53.11;102693.22;6124225;23;20014;-54
2023/05/25 06:15:56;;;;;;;3.30;1.40;;;;;;;19.44;52.98;102693.09;6124300;23;20314;-54
2023/05/25 06:18:21;;;;;;;2.50;1.50;;;;;;;19.43;52.84;102689.53;6124676;23;20070;-54
2023/05/25 06:20:46;;;;;;;2.88;1.83;;;;;;;19.44;52.68;102699.38;6124309;23;19998;-54
2023/05/25 06:23:12;;;;;;;3.63;1.67;;;;;;;19.45;53.03;102694.81;6123928;23;20028;-54
2023/05/25 06:25:39;;;;;;;3.00;1.52;;;;;;;19.45;52.89;102700.22;6124272;23;20009;-54
2023/05/25 06:28:04;;;;;;;2.75;1.70;;;;;;;19.47;52.97;102700.97;6098046;23;20014;-55
2023/05/25 06:30:29;;;;;;;2.38;1.13;;;;;;;19.46;52.83;102692.03;6123788;23;20037;-54
2023/05/25 06:32:55;;;;;;;1.85;1.60;;;;;;;19.48;52.53;102703.56;6124360;23;20077;-54
2023/05/25 06:35:21;;;;;;;2.10;1.60;;;;;;;19.48;52.82;102706.28;6124507;23;20328;-54
2023/05/25 06:37:47;;;;;;;2.38;1.70;;;;;;;19.49;53.10;102713.41;6123804;23;20013;-54
2023/05/25 06:40:14;;;;;;;3.17;1.55;;;;;;;19.50;53.03;102720.53;6124350;23;20696;-54
2023/05/25 06:42:40;;;;;;;4.63;1.45;;;;;;;19.51;53.02;102718.69;6123912;23;20064;-54
2023/05/25 06:45:07;;;;;;;3.42;1.67;;;;;;;19.51;52.76;102721.41;6123654;23;20448;-53
2023/05/25 06:47:32;;;;;;;3.13;1.92;;;;;;;19.50;52.76;102731.34;6123961;23;20081;-54
2023/05/25 06:49:58;;;;;;;4.00;1.58;;;;;;;19.51;52.99;102722.28;6123754;23;20029;-54
2023/05/25 06:52:26;;;;;;;3.00;1.90;;;;;;;19.50;52.68;102731.34;6123902;23;20034;-54
2023/05/25 06:54:52;;;;;;;2.25;1.30;;;;;;;19.50;52.69;102731.34;6124690;23;20040;-54
2023/05/25 06:57:17;;;;;;;3.92;1.50;;;;;;;19.50;52.52;102728.66;6123734;23;20333;-54
2023/05/25 06:59:43;;;;;;;3.50;1.50;;;;;;;19.50;52.71;102720.53;6123536;23;20065;-54
2023/05/25 07:02:08;;;;;;;2.60;1.30;;;;;;;19.51;52.61;102729.50;6123686;23;20085;-54
2023/05/25 07:04:33;;;;;;;2.25;1.63;;;;;;;19.50;52.53;102731.34;6123625;23;20061;-54
2023/05/25 07:06:59;;;;;;;2.53;1.50;;;;;;;19.50;52.84;102739.44;6123552;23;20009;-54
2023/05/25 07:09:24;;;;;;;2.55;1.75;;;;;;;19.50;52.65;102731.34;6123579;23;20373;-53
2023/05/25 07:11:49;;;;;;;3.15;1.80;;;;;;;19.50;53.01;102728.66;6124504;23;20014;-54
2023/05/25 07:14:16;;;;;;;3.63;1.40;;;;;;;19.50;52.33;102735.91;6123653;23;20336;-54
2023/05/25 07:16:43;;;;;;;2.97;1.67;;;;;;;19.49;52.45;102732.31;6123554;23;20388;-54
2023/05/25 07:19:10;;;;;;;2.75;1.30;;;;;;;19.49;52.66;102731.44;6122786;23;20010;-54
2023/05/25 07:21:35;;;;;;;2.55;1.85;;;;;;;19.49;52.43;102732.31;6123011;23;20010;-54
2023/05/25 07:24:01;;;;;;;2.20;1.60;;;;;;;19.49;52.35;102735.00;6123280;23;20048;-54
2023/05/25 07:26:27;;;;;;;2.53;1.50;;;;;;;19.50;52.68;102733.19;6123159;23;20044;-54
2023/05/25 07:28:53;;;;;;;3.25;1.75;;;;;;;19.49;52.82;102735.00;6124423;23;20030;-55
2023/05/25 07:31:18;;;;;;;4.45;1.80;;;;;;;19.49;52.60;102739.56;6123151;23;20077;-53
2023/05/25 07:33:44;;;;;;;2.83;1.73;;;;;;;19.49;52.41;102740.41;6123452;23;20006;-54
2023/05/25 07:36:09;;;;;;;2.90;1.85;;;;;;;19.49;52.58;102737.72;6123142;23;20088;-54
2023/05/25 07:38:35;;;;;;;3.75;1.60;;;;;;;19.50;52.32;102734.03;6123327;23;20093;-55
2023/05/25 07:41:01;;;;;;;8.60;1.80;;;;;;;19.50;52.53;102744.84;6123155;23;20008;-55
2023/05/25 07:43:26;;;;;;;7.45;1.70;;;;;;;19.50;52.37;102750.25;6123337;23;20021;-55
2023/05/25 07:45:52;;;;;;;2.90;1.55;;;;;;;19.51;52.49;102737.59;6123944;23;20009;-55
2023/05/25 07:48:18;;;;;;;2.47;1.42;;;;;;;19.51;52.34;102743.91;6123543;23;20009;-54
2023/05/25 07:50:43;;;;;;;5.13;1.88;;;;;;;19.52;52.38;102750.16;6122759;23;20032;-53
2023/05/25 07:53:09;;;;;;;6.10;1.80;;;;;;;19.52;52.56;102742.91;6123041;23;20010;-54
2023/05/25 07:55:34;;;;;;;5.63;1.58;;;;;;;19.50;52.33;102742.16;6123660;23;20010;-54
2023/05/25 07:57:59;;;;;;;3.88;1.83;;;;;;;19.51;52.44;102743.00;6123406;23;20425;-54
2023/05/25 08:00:25;;;;;;;5.78;2.05;;;;;;;19.51;52.37;102740.31;6123994;23;20080;-55
2023/05/25 08:02:50;;;;;;;4.25;1.95;;;;;;;19.51;52.51;102746.59;6123206;23;20043;-54
2023/05/25 08:05:16;;;;;;;3.72;2.00;;;;;;;19.51;52.46;102746.59;6123445;23;20670;-54
2023/05/25 08:07:41;;;;;;;4.57;1.83;;;;;;;19.52;52.30;102751.00;6123070;23;20065;-54
2023/05/25 08:10:07;;;;;;;4.78;1.83;;;;;;;19.52;52.63;102748.31;6123126;23;20337;-53
2023/05/25 08:12:33;;;;;;;3.53;1.50;;;;;;;19.53;52.37;102750.06;6123352;23;20006;-53
2023/05/25 08:14:58;;;;;;;4.47;1.92;;;;;;;19.52;52.50;102751.00;6123384;23;20457;-55
2023/05/25 08:17:24;;;;;;;1.95;1.50;;;;;;;19.53;52.48;102754.56;6123802;23;20006;-55
2023/05/25 08:19:49;;;;;;;5.32;2.00;;;;;;;19.53;52.58;102762.66;6123161;23;20002;-54
2023/05/25 08:22:15;;;;;;;4.47;2.10;;;;;;;19.53;52.30;102763.56;6122740;23;20010;-54
2023/05/25 08:24:41;;;;;;;2.80;1.95;;;;;;;19.53;52.24;102763.56;6122900;23;20021;-55
2023/05/25 08:27:06;;;;;;;4.57;1.90;;;;;;;19.54;52.25;102756.31;6123078;23;20440;-54
2023/05/25 08:29:31;;;;;;;5.85;1.88;;;;;;;19.54;52.12;102765.28;6122973;23;20020;-55
2023/05/25 08:31:57;;;;;;;2.55;1.52;;;;;;;19.53;52.33;102758.16;6123792;23;20336;-54
2023/05/25 08:34:22;;;;;;;4.55;2.15;;;;;;;19.56;52.01;102758.91;6097470;23;20010;-55
2023/05/25 08:36:47;;;;;;;8.38;2.00;;;;;;;19.56;52.20;102767.00;6122897;23;20020;-55
2023/05/25 08:39:14;;;;;;;3.22;1.95;;;;;;;19.57;52.23;102760.63;6122951;23;20021;-55
2023/05/25 08:41:42;;;;;;;3.75;1.88;;;;;;;19.57;52.24;102766.03;6122594;23;20110;-54
2023/05/25 08:44:08;;;;;;;5.82;1.77;;;;;;;19.57;52.49;102763.31;6123880;23;20030;-53
2023/05/25 08:46:33;;;;;;;5.43;1.80;;;;;;;19.58;52.38;102765.06;6124075;23;20481;-54
2023/05/25 08:49:10;;;;;;;4.20;1.77;;;;;;;19.59;52.51;102769.47;6124389;23;20006;-54
2023/05/25 08:51:37;;;;;;;4.88;2.00;;;;;;;19.58;52.38;102759.66;6123561;23;20010;-53
2023/05/25 08:54:11;;;;;;;4.28;1.90;;;;;;;19.59;52.67;102764.06;6123900;23;20006;-54
2023/05/25 08:56:52;;;;;;;3.92;1.65;;;;;;;19.59;52.37;102762.25;6123589;23;20033;-54
2023/05/25 08:59:30;;;;;;;4.35;2.25;;;;;;;19.59;52.71;102769.47;6123479;23;20006;-54
2023/05/25 09:02:22;;;;;;;6.10;2.10;;;;;;;19.61;52.66;102767.53;6122817;23;20006;-54
2023/05/25 09:04:47;;;;;;;3.97;1.73;;;;;;;19.60;52.56;102776.63;6121724;23;20018;-55
2023/05/25 09:07:13;;;;;;;3.88;1.80;;;;;;;19.59;52.37;102772.19;6121996;23;20084;-54
2023/05/25 09:09:39;;;;;;;3.88;1.85;;;;;;;19.59;52.61;102778.47;6121881;23;20473;-53
2023/05/25 09:12:06;;;;;;;6.32;1.88;;;;;;;19.57;52.67;102774.97;6122015;23;20016;-55
2023/05/25 09:14:33;;;;;;;5.78;2.00;;;;;;;19.57;52.77;102782.22;6121937;23;20344;-53
2023/05/25 09:16:59;;;;;;;5.60;2.03;;;;;;;19.56;52.59;102784.09;6123737;23;20022;-55
2023/05/25 09:19:25;;;;;;;4.13;2.10;;;;;;;19.57;52.70;102777.69;6123906;23;20002;-54
2023/05/25 09:21:50;;;;;;;4.45;1.80;;;;;;;19.57;52.66;102784.94;6123517;23;20014;-54
2023/05/25 09:24:17;;;;;;;4.32;1.58;;;;;;;19.58;52.64;102786.69;6123465;23;20468;-54
2023/05/25 09:26:45;;;;;;;4.32;1.77;;;;;;;19.57;52.49;102780.38;6123872;23;20056;-54
2023/05/25 09:29:13;;;;;;;3.58;1.52;;;;;;;19.56;52.66;102784.09;6123905;23;20013;-55
2023/05/25 09:31:39;;;;;;;5.07;2.03;;;;;;;19.57;52.47;102787.63;6097657;23;20020;-53
2023/05/25 09:34:13;;;;;;;4.22;1.65;;;;;;;19.56;52.56;102786.78;6123344;23;20010;-54
2023/05/25 09:36:40;;;;;;;5.50;2.30;;;;;;;19.56;52.54;102788.63;6123389;23;20426;-54
2023/05/25 09:39:10;;;;;;;4.90;1.77;;;;;;;19.56;52.49;102794.03;6123071;23;20001;-54
2023/05/25 09:41:42;;;;;;;5.00;1.92;;;;;;;19.56;52.31;102796.75;6098078;23;20417;-54
2023/05/25 09:44:07;;;;;;;5.25;2.13;;;;;;;19.56;52.59;102785.94;6123837;23;20093;-54
2023/05/25 09:46:36;;;;;;;2.38;1.58;;;;;;;19.54;52.38;102786.03;6125148;23;20089;-54
2023/05/25 09:49:03;;;;;;;3.05;1.80;;;;;;;19.55;52.30;102793.16;6125443;23;20060;-55
2023/05/25 09:51:32;;;;;;;3.35;2.25;;;;;;;19.54;52.17;102786.88;6125661;23;20382;-55
2023/05/25 09:54:00;;;;;;;4.65;1.70;;;;;;;19.54;52.30;102786.88;6125474;23;20021;-54
2023/05/25 09:56:27;;;;;;;5.35;2.17;;;;;;;19.55;52.37;102787.75;6124919;23;20006;-55
2023/05/25 09:58:52;;;;;;;3.75;1.70;;;;;;;19.55;52.33;102793.16;6125029;23;20009;-54
2023/05/25 10:01:18;;;;;;;3.00;2.00;;;;;;;19.55;52.15;102793.16;6124699;23;20028;-54
2023/05/25 10:03:47;;;;;;;2.90;1.77;;;;;;;19.56;52.17;102792.19;6125068;23;20027;-54
2023/05/25 10:06:13;;;;;;;4.13;2.08;;;;;;;19.57;52.49;102795.75;6124780;23;20006;-54
2023/05/25 10:08:41;;;;;;;5.30;2.03;;;;;;;19.57;52.16;102795.75;6125186;23;20010;-54
2023/05/25 10:11:07;;;;;;;2.95;1.50;;;;;;;19.57;51.89;102798.44;6124769;23;20337;-54
2023/05/25 10:13:32;;;;;;;5.45;1.90;;;;;;;19.58;51.96;102798.34;6125085;23;20013;-54
2023/05/25 10:15:58;;;;;;;3.78;2.00;;;;;;;19.58;52.27;102789.38;6125292;23;20426;-54
2023/05/25 10:18:27;;;;;;;4.38;2.00;;;;;;;19.58;52.14;102794.78;6124861;23;20085;-55
2023/05/25 10:21:01;;;;;;;4.35;1.60;;;;;;;19.58;52.13;102795.66;6124846;23;20010;-55
2023/05/25 10:23:34;;;;;;;5.45;2.13;;;;;;;19.58;52.10;102798.34;6124883;23;20018;-55
2023/05/25 10:26:03;;;;;;;4.65;1.92;;;;;;;19.59;52.16;102804.59;6125616;23;20302;-55
2023/05/25 10:28:34;;;;;;;4.43;2.08;;;;;;;19.59;52.32;102799.19;6125302;23;20021;-54
2023/05/25 10:31:00;;;;;;;6.97;2.50;;;;;;;19.60;52.44;102795.53;6125231;23;20084;-55
2023/05/25 10:33:27;;;;;;;3.97;2.03;;;;;;;19.59;52.20;102793.78;6124755;23;20029;-55
2023/05/25 10:35:54;;;;;;;3.85;1.85;;;;;;;19.59;52.10;102791.09;6124516;23;20028;-55
2023/05/25 10:38:21;;;;;;;4.75;1.83;;;;;;;19.59;52.29;102788.38;6124843;23;20340;-54
2023/05/25 10:40:49;;;;;;;3.97;1.90;;;;;;;19.61;52.18;102794.53;6124718;23;20001;-55
2023/05/25 10:43:16;;;;;;;3.90;1.95;;;;;;;19.59;52.04;102800.09;6124957;23;20383;-54
2023/05/25 10:45:42;;;;;;;4.35;1.98;;;;;;;19.61;52.32;102797.25;6124664;23;20093;-53
2023/05/25 10:48:08;;;;;;;3.97;1.67;;;;;;;19.60;52.62;102799.09;6124664;23;20033;-54
2023/05/25 10:50:34;;;;;;;4.82;2.05;;;;;;;19.60;52.51;102793.69;6124322;23;20425;-54
2023/05/25 10:53:04;;;;;;;5.60;2.15;;;;;;;19.60;52.51;102791.00;6125026;23;20425;-54
2023/05/25 10:55:41;;;;;;;9.60;2.30;;;;;;;19.61;52.38;102798.13;6124997;23;20006;-54
2023/05/25 10:58:09;;;;;;;4.20;2.10;;;;;;;19.61;52.39;102797.25;6124627;23;20084;-53
2023/05/25 11:00:35;;;;;;;4.72;2.00;;;;;;;19.61;52.65;102794.53;6124667;23;20002;-54
2023/05/25 11:03:00;;;;;;;3.30;1.55;;;;;;;19.63;52.62;102785.38;6124970;23;20108;-54
2023/05/25 11:05:25;;;;;;;5.30;2.17;;;;;;;19.63;52.44;102793.50;6124304;23;20010;-55
2023/05/25 11:07:52;;;;;;;6.55;1.80;;;;;;;19.63;52.42;102792.59;6124666;23;20329;-54
2023/05/25 11:10:47;;;;;;;5.40;2.00;;;;;;;19.66;52.41;102782.44;6123937;23;20328;-54
2023/05/25 11:13:30;;;;;;;6.07;2.47;;;;;;;19.67;52.58;102791.44;6123507;23;20072;-54
2023/05/25 11:16:22;;;;;;;5.45;2.10;;;;;;;19.66;52.55;102789.69;6123562;23;20001;-54
2023/05/25 11:18:50;;;;;;;5.88;2.60;;;;;;;19.65;52.24;102793.38;6123785;23;20010;-54
2023/05/25 11:21:21;;;;;;;3.75;1.88;;;;;;;19.65;52.21;102782.56;6123604;23;20013;-54
2023/05/25 11:23:57;;;;;;;7.53;2.33;;;;;;;19.68;52.12;102785.88;6123766;23;20024;-55